PF1 CYXU-ZZZZ
Flight info
| Callsign | PF1 |
|---|---|
| Flight time | N/A |
| Altitude | 3000 |
| Route | VFR SOUTHBOUND |
| Aircraft | F35 |
Departure
| Time | 2026-05-07 01:07 |
|---|---|
| Airport | London International Airport (CYXU) |
Arrival
| Time | N/A |
|---|---|
| Airport | ZZZZ |
| Time | Latitude | Longitude | Altitude | Speed | Heading |
|---|---|---|---|---|---|
| 2026-05-07 01:04 | 43.02533 | -81.14285 | 900 ft | 16 kts | 139° |
| 2026-05-07 01:04 | 43.02448 | -81.14184 | 898 ft | 20 kts | 139° |
| 2026-05-07 01:04 | 43.02334 | -81.14046 | 898 ft | 21 kts | 137° |
| 2026-05-07 01:04 | 43.02326 | -81.13949 | 896 ft | 10 kts | 51° |
| 2026-05-07 01:05 | 43.02340 | -81.13928 | 896 ft | 0 kts | 49° |
| 2026-05-07 01:05 | 43.02371 | -81.13880 | 895 ft | 15 kts | 49° |
| 2026-05-07 01:05 | 43.02439 | -81.13859 | 897 ft | 9 kts | 338° |
| 2026-05-07 01:05 | 43.02663 | -81.14123 | 928 ft | 108 kts | 318° |
| 2026-05-07 01:06 | 43.03512 | -81.15133 | 1011 ft | 199 kts | 318° |
| 2026-05-07 01:06 | 43.04959 | -81.16861 | 1006 ft | 376 kts | 319° |
| 2026-05-07 01:06 | 43.06462 | -81.19943 | 1217 ft | 356 kts | 243° |
| 2026-05-07 01:06 | 43.04759 | -81.21983 | 1136 ft | 328 kts | 214° |
| 2026-05-07 01:07 | 43.02646 | -81.23810 | 1436 ft | 388 kts | 211° |
| 2026-05-07 01:07 | 43.00190 | -81.25759 | 1541 ft | 418 kts | 208° |
| 2026-05-07 01:07 | 42.97362 | -81.26132 | 1484 ft | 462 kts | 180° |
| 2026-05-07 01:07 | 42.93914 | -81.26024 | 2106 ft | 506 kts | 178° |
| 2026-05-07 01:08 | 42.90289 | -81.25785 | 1902 ft | 533 kts | 177° |
| 2026-05-07 01:08 | 42.86561 | -81.25461 | 2120 ft | 542 kts | 176° |
| 2026-05-07 01:08 | 42.82773 | -81.25120 | 2235 ft | 548 kts | 176° |
| 2026-05-07 01:08 | 42.78957 | -81.24777 | 2291 ft | 551 kts | 176° |
| 2026-05-07 01:09 | 42.75126 | -81.24432 | 2366 ft | 552 kts | 176° |
| 2026-05-07 01:09 | 42.71279 | -81.24089 | 2277 ft | 556 kts | 176° |
| 2026-05-07 01:09 | 42.67573 | -81.22915 | 2065 ft | 534 kts | 128° |
| 2026-05-07 01:09 | 42.67620 | -81.18077 | 1388 ft | 569 kts | 86° |
| 2026-05-07 01:10 | 42.67748 | -81.13262 | 3265 ft | 380 kts | 108° |
| 2026-05-07 01:10 | 42.66961 | -81.09840 | 2702 ft | 409 kts | 104° |
| 2026-05-07 01:10 | 42.67754 | -81.07049 | 2317 ft | 379 kts | 355° |
| 2026-05-07 01:10 | 42.70234 | -81.06933 | 2317 ft | 320 kts | 6° |
| 2026-05-07 01:11 | 42.72120 | -81.06498 | 2192 ft | 214 kts | 9° |
| 2026-05-07 01:11 | 42.73330 | -81.06331 | 2296 ft | 170 kts | 358° |
| 2026-05-07 01:11 | 42.74418 | -81.06409 | 2032 ft | 148 kts | 358° |
| 2026-05-07 01:11 | 42.75334 | -81.06446 | 1645 ft | 157 kts | 354° |
| 2026-05-07 01:12 | 42.76484 | -81.06749 | 1432 ft | 160 kts | 330° |
| 2026-05-07 01:12 | 42.77200 | -81.07704 | 1224 ft | 137 kts | 295° |
| 2026-05-07 01:12 | 42.77420 | -81.08940 | 925 ft | 133 kts | 270° |
| 2026-05-07 01:12 | 42.77352 | -81.10197 | 777 ft | 111 kts | 265° |
| 2026-05-07 01:13 | 42.77319 | -81.10728 | 778 ft | 6 kts | 270° |
| 2026-05-07 01:13 | 42.77318 | -81.10730 | 778 ft | 0 kts | 270° |
| 2026-05-07 01:13 | 42.77318 | -81.10733 | 778 ft | 1 kts | 270° |
| 2026-05-07 01:13 | 42.77318 | -81.10737 | 799 ft | 1 kts | 270° |
| 2026-05-07 01:14 | 42.77328 | -81.10735 | 911 ft | 4 kts | 295° |
| 2026-05-07 01:14 | 42.77332 | -81.10740 | 1049 ft | 1 kts | 295° |
| 2026-05-07 01:14 | 42.77392 | -81.10905 | 1159 ft | 72 kts | 294° |
| 2026-05-07 01:14 | 42.77775 | -81.12043 | 1528 ft | 182 kts | 294° |
| 2026-05-07 01:15 | 42.78539 | -81.14316 | 2046 ft | 366 kts | 294° |
| 2026-05-07 01:15 | 42.80556 | -81.16051 | 2223 ft | 465 kts | 32° |
| 2026-05-07 01:15 | 42.83668 | -81.13321 | 2657 ft | 590 kts | 33° |
| 2026-05-07 01:15 | 42.87024 | -81.09819 | 2831 ft | 612 kts | 68° |
| 2026-05-07 01:16 | 42.84625 | -81.07656 | 1964 ft | 598 kts | 198° |
| 2026-05-07 01:16 | 42.80593 | -81.09242 | 789 ft | 634 kts | 197° |
| 2026-05-07 01:16 | 42.80380 | -81.09473 | 799 ft | 6 kts | 39° |